Time;durP1;ratioP1;P1;durP2;ratioP2;P2;SDS_P1;SDS_P2;PMS_P1;PMS_P2;Temp;Humidity;BMP_temperature;BMP_pressure;BME280_temperature;BME280_humidity;BME280_pressure;Samples;Min_cycle;Max_cycle;Signal;HPM_P1;HPM_P2
2022/08/06 00:02:39;;;;;;;11.32;10.38;;;9.90;99.90;;;;;;5062335;28;20048;-77
2022/08/06 00:08:44;;;;;;;10.65;9.95;;;9.90;99.90;;;;;;5032277;28;20068;-77
2022/08/06 00:11:13;;;;;;;11.70;10.50;;;9.80;99.90;;;;;;5061644;28;20107;-78
2022/08/06 00:13:41;;;;;;;11.77;10.63;;;9.80;99.90;;;;;;5043146;28;20136;-77
2022/08/06 00:16:08;;;;;;;10.98;10.10;;;9.80;99.90;;;;;;5025500;28;20066;-77
2022/08/06 00:18:55;;;;;;;11.23;10.27;;;9.90;99.90;;;;;;5055974;28;20040;-77
2022/08/06 00:21:22;;;;;;;11.68;10.55;;;9.90;99.90;;;;;;5043464;28;20048;-78
2022/08/06 00:24:08;;;;;;;14.43;9.23;;;9.90;99.90;;;;;;5025882;28;20109;-78
2022/08/06 00:26:53;;;;;;;9.77;9.05;;;9.90;99.90;;;;;;5061757;28;20044;-77
2022/08/06 00:29:32;;;;;;;11.55;9.45;;;9.80;99.90;;;;;;5065365;28;20052;-77
2022/08/06 00:32:13;;;;;;;10.63;9.55;;;9.70;99.90;;;;;;5054716;28;20127;-79
2022/08/06 00:34:49;;;;;;;11.00;9.80;;;9.90;99.90;;;;;;5054264;28;20611;-77
2022/08/06 00:37:17;;;;;;;12.65;11.02;;;9.80;99.90;;;;;;5043136;28;20036;-80
2022/08/06 00:39:45;;;;;;;10.52;9.60;;;9.70;99.90;;;;;;5036616;28;20059;-79
2022/08/06 00:42:12;;;;;;;11.90;10.57;;;9.70;99.90;;;;;;5046563;28;20052;-80
2022/08/06 00:44:43;;;;;;;10.77;9.90;;;9.60;99.90;;;;;;5065706;28;20041;-78
2022/08/06 00:47:13;;;;;;;11.88;10.63;;;9.50;99.90;;;;;;5055884;28;20433;-77
2022/08/06 00:50:00;;;;;;;10.88;10.05;;;9.50;99.90;;;;;;5056136;28;20104;-78
2022/08/06 00:52:28;;;;;;;11.20;10.40;;;9.40;99.90;;;;;;5046798;28;20051;-77
2022/08/06 00:54:55;;;;;;;10.85;9.85;;;9.40;99.90;;;;;;5033198;28;20048;-79
2022/08/06 00:57:22;;;;;;;16.35;10.20;;;9.40;99.90;;;;;;5069728;28;20067;-79
2022/08/06 00:59:56;;;;;;;11.55;10.50;;;9.30;99.90;;;;;;5042558;28;20114;-79
2022/08/06 01:02:22;;;;;;;11.27;10.18;;;9.20;99.90;;;;;;5030165;28;20101;-79
2022/08/06 01:04:52;;;;;;;11.07;10.02;;;9.10;99.90;;;;;;5028821;28;20052;-78
2022/08/06 01:07:39;;;;;;;11.02;10.32;;;9.10;99.90;;;;;;5051022;28;20075;-78
2022/08/06 01:10:18;;;;;;;11.02;10.20;;;9.10;99.90;;;;;;5053529;28;20044;-79
2022/08/06 01:12:56;;;;;;;11.98;10.68;;;9.20;99.90;;;;;;5065940;28;20041;-79
2022/08/06 01:15:23;;;;;;;12.38;10.30;;;9.20;99.90;;;;;;5075530;28;20134;-75
2022/08/06 01:18:16;;;;;;;9.65;8.82;;;9.20;99.90;;;;;;5069550;28;20044;-79
2022/08/06 01:20:46;;;;;;;10.30;9.20;;;9.20;99.90;;;;;;5067153;28;20056;-76
2022/08/06 01:23:45;;;;;;;9.80;8.98;;;9.20;99.90;;;;;;5063391;28;20039;-80
2022/08/06 01:26:34;;;;;;;10.75;9.15;;;9.20;99.90;;;;;;5041719;28;20040;-79
2022/08/06 01:29:06;;;;;;;10.60;9.50;;;9.00;99.90;;;;;;5063454;28;20044;-77
2022/08/06 01:32:03;;;;;;;9.20;8.43;;;9.00;99.90;;;;;;5061814;28;20287;-79
2022/08/06 01:34:39;;;;;;;10.48;9.63;;;9.00;99.90;;;;;;5042340;28;20331;-78
2022/08/06 01:37:21;;;;;;;13.50;9.38;;;8.80;99.90;;;;;;5040199;28;20283;-80
2022/08/06 01:39:52;;;;;;;10.27;9.57;;;8.80;99.90;;;;;;5050325;28;20515;-81
2022/08/06 01:42:32;;;;;;;11.48;10.35;;;8.90;99.90;;;;;;5042452;28;20588;-80
2022/08/06 01:45:06;;;;;;;18.67;9.80;;;8.80;99.90;;;;;;5032582;28;20113;-79
2022/08/06 01:47:37;;;;;;;9.57;8.75;;;8.80;99.90;;;;;;5048278;28;20041;-80
2022/08/06 01:50:26;;;;;;;10.40;8.70;;;8.70;99.90;;;;;;5037698;28;20045;-79
2022/08/06 01:52:56;;;;;;;10.77;8.52;;;8.60;99.90;;;;;;5040292;28;20055;-77
2022/08/06 01:55:37;;;;;;;9.50;8.70;;;8.50;99.90;;;;;;5029887;28;20047;-79
2022/08/06 01:58:38;;;;;;;18.67;8.90;;;8.50;99.90;;;;;;5042077;28;20521;-78
2022/08/06 02:01:10;;;;;;;8.60;7.53;;;8.50;99.90;;;;;;5024686;28;20521;-79
2022/08/06 02:03:45;;;;;;;10.88;8.77;;;8.50;99.90;;;;;;5063761;28;20106;-78
2022/08/06 02:06:32;;;;;;;9.27;8.27;;;8.50;99.90;;;;;;5058184;28;20040;-79
2022/08/06 02:09:03;;;;;;;8.95;8.02;;;8.30;99.90;;;;;;5039756;28;20102;-79
2022/08/06 02:12:08;;;;;;;9.63;8.82;;;8.40;99.90;;;;;;5046273;28;20114;-81
2022/08/06 02:14:45;;;;;;;9.77;8.82;;;8.40;99.90;;;;;;5043809;28;20042;-80
2022/08/06 02:17:19;;;;;;;9.13;8.23;;;8.40;99.90;;;;;;5024962;28;20052;-81
2022/08/06 02:20:08;;;;;;;10.68;9.68;;;8.40;99.90;;;;;;5062503;28;20448;-81
2022/08/06 02:22:45;;;;;;;12.27;9.15;;;8.50;99.90;;;;;;5048502;28;20140;-79
2022/08/06 02:25:16;;;;;;;12.13;9.00;;;8.40;99.90;;;;;;5044110;28;20036;-81
2022/08/06 02:27:56;;;;;;;10.38;9.38;;;8.50;99.90;;;;;;5048856;28;20509;-79
2022/08/06 02:30:29;;;;;;;10.43;9.43;;;8.50;99.90;;;;;;5057255;28;20040;-78
2022/08/06 02:33:03;;;;;;;8.52;7.85;;;8.50;99.90;;;;;;5024177;28;20048;-80
2022/08/06 02:35:36;;;;;;;9.73;8.25;;;8.20;99.90;;;;;;5034148;28;20051;-78
2022/08/06 02:38:39;;;;;;;9.80;8.45;;;8.20;99.90;;;;;;5028088;28;20132;-78
2022/08/06 02:41:37;;;;;;;8.63;7.78;;;8.10;99.90;;;;;;5021041;28;20442;-82
2022/08/06 02:44:46;;;;;;;9.30;8.50;;;8.20;99.90;;;;;;5018567;28;20094;-81
2022/08/06 02:47:29;;;;;;;10.65;9.55;;;8.00;99.90;;;;;;5040112;28;20040;-81
2022/08/06 02:50:19;;;;;;;11.40;10.18;;;8.00;99.90;;;;;;5023372;28;20182;-81
2022/08/06 02:53:04;;;;;;;13.40;10.30;;;7.90;99.90;;;;;;5030941;28;20049;-81
2022/08/06 02:55:55;;;;;;;17.33;10.98;;;7.90;99.90;;;;;;5041265;28;20033;-81
2022/08/06 02:58:39;;;;;;;12.25;9.45;;;7.90;99.90;;;;;;5019911;28;20101;-81
2022/08/06 03:01:27;;;;;;;11.23;10.07;;;7.80;99.90;;;;;;5022720;28;20043;-80
2022/08/06 03:03:58;;;;;;;10.95;9.95;;;7.90;99.90;;;;;;5038009;28;20033;-82
2022/08/06 03:06:28;;;;;;;12.57;9.90;;;7.80;99.90;;;;;;5007645;28;20041;-78
2022/08/06 03:08:57;;;;;;;10.77;9.88;;;7.80;99.90;;;;;;5039525;28;20465;-80
2022/08/06 03:11:25;;;;;;;11.80;10.60;;;7.80;99.90;;;;;;5019881;28;20041;-81
2022/08/06 03:14:04;;;;;;;11.63;10.63;;;7.80;99.90;;;;;;5020378;28;20693;-81
2022/08/06 03:16:52;;;;;;;12.52;11.18;;;7.80;99.90;;;;;;5035703;28;20072;-81
2022/08/06 03:19:26;;;;;;;13.85;11.15;;;7.90;99.90;;;;;;5021394;28;20216;-81
2022/08/06 03:22:14;;;;;;;16.42;11.48;;;7.90;99.90;;;;;;5043458;28;20069;-80
2022/08/06 03:25:02;;;;;;;11.95;10.85;;;7.60;99.90;;;;;;5038511;28;20073;-81
2022/08/06 03:27:31;;;;;;;12.18;10.88;;;7.50;99.90;;;;;;5019998;28;20056;-82
2022/08/06 03:30:15;;;;;;;13.27;11.30;;;7.40;99.90;;;;;;5024384;28;20131;-79
2022/08/06 03:33:02;;;;;;;12.45;11.20;;;7.40;99.90;;;;;;5035829;28;20059;-80
2022/08/06 03:35:51;;;;;;;10.13;9.20;;;7.30;99.90;;;;;;5040550;28;20128;-79
2022/08/06 03:38:22;;;;;;;13.82;10.55;;;7.30;99.90;;;;;;5037805;28;20474;-81
2022/08/06 03:40:56;;;;;;;;;;;7.30;99.90;;;;;;5019245;28;20117;-80
2022/08/06 03:43:23;;;;;;;10.90;10.10;;;7.30;99.90;;;;;;5021626;28;19925;-80
2022/08/06 03:46:00;;;;;;;12.52;11.25;;;7.20;99.90;;;;;;5040606;28;20671;-80
2022/08/06 03:48:32;;;;;;;11.52;10.63;;;7.20;99.90;;;;;;5040555;28;20052;-80
2022/08/06 03:51:11;;;;;;;10.77;9.98;;;7.10;99.90;;;;;;5024328;28;20603;-80
2022/08/06 03:53:40;;;;;;;10.55;9.93;;;7.10;99.90;;;;;;5021688;28;20613;-80
2022/08/06 03:56:21;;;;;;;10.27;9.57;;;7.10;99.90;;;;;;5025268;28;20413;-80
2022/08/06 03:59:01;;;;;;;15.40;8.23;;;7.20;99.90;;;;;;5044239;28;20357;-79
2022/08/06 04:01:35;;;;;;;9.82;9.07;;;7.40;99.90;;;;;;5024162;28;20053;-81
2022/08/06 04:04:17;;;;;;;9.00;8.30;;;7.30;99.90;;;;;;5031832;28;20044;-80
2022/08/06 04:06:57;;;;;;;8.68;7.78;;;7.40;99.90;;;;;;5014858;28;20045;-78
2022/08/06 04:09:27;;;;;;;16.23;12.10;;;7.30;99.90;;;;;;5009574;28;20045;-79
2022/08/06 04:12:15;;;;;;;10.95;10.10;;;7.20;99.90;;;;;;5026372;28;20102;-80
2022/08/06 04:15:03;;;;;;;11.35;10.35;;;7.20;99.90;;;;;;5026086;28;20473;-80
2022/08/06 04:17:37;;;;;;;12.20;11.13;;;7.20;99.90;;;;;;5029595;28;20055;-79
2022/08/06 04:20:08;;;;;;;11.55;10.63;;;7.20;99.90;;;;;;5042817;28;20036;-79
2022/08/06 04:22:35;;;;;;;13.63;12.60;;;7.30;99.90;;;;;;5023959;28;20037;-81
2022/08/06 04:25:24;;;;;;;13.55;12.55;;;7.30;99.90;;;;;;5045579;28;20025;-79
2022/08/06 04:27:53;;;;;;;14.52;13.23;;;7.30;99.90;;;;;;5025841;28;20588;-78
2022/08/06 04:30:26;;;;;;;15.50;13.93;;;7.20;99.90;;;;;;5043765;28;20469;-79
2022/08/06 04:32:53;;;;;;;11.55;10.68;;;7.20;99.90;;;;;;5059714;28;20418;-79
2022/08/06 04:35:29;;;;;;;12.13;11.18;;;7.10;99.90;;;;;;5026862;28;20497;-79
2022/08/06 04:38:19;;;;;;;11.50;10.60;;;7.20;99.90;;;;;;5049352;28;20029;-79
2022/08/06 04:40:56;;;;;;;29.33;28.25;;;7.10;99.90;;;;;;5064688;28;20272;-78
2022/08/06 04:43:23;;;;;;;5.90;5.70;;;7.10;99.90;;;;;;5042091;28;20049;-78
2022/08/06 04:46:11;;;;;;;11.60;11.20;;;7.10;99.90;;;;;;5040403;28;20060;-80
2022/08/06 04:48:46;;;;;;;1999.90;999.90;;;7.00;99.90;;;;;;5035057;28;20085;-79
2022/08/06 04:51:22;;;;;;;13.30;12.80;;;7.20;99.90;;;;;;5036605;28;20037;-80
2022/08/06 04:54:09;;;;;;;12.60;12.10;;;7.10;99.90;;;;;;5044551;28;20462;-79
2022/08/06 04:56:39;;;;;;;13.68;13.18;;;7.10;99.90;;;;;;5047255;28;20052;-78
2022/08/06 04:59:18;;;;;;;13.25;12.75;;;7.20;99.90;;;;;;5043217;28;20053;-79
2022/08/06 05:01:46;;;;;;;11.32;10.93;;;7.20;99.90;;;;;;5053858;28;20052;-80
2022/08/06 05:04:29;;;;;;;12.23;11.82;;;7.30;99.90;;;;;;5060324;28;20577;-80
2022/08/06 05:07:20;;;;;;;12.73;12.23;;;7.40;99.90;;;;;;5042327;28;20117;-78
2022/08/06 05:09:49;;;;;;;16.30;15.60;;;7.40;99.90;;;;;;5038583;28;20452;-80
2022/08/06 05:12:31;;;;;;;18.00;17.10;;;7.50;99.90;;;;;;5041933;28;20043;-79
2022/08/06 05:15:09;;;;;;;11.43;11.02;;;7.50;99.90;;;;;;5048846;28;20096;-80
2022/08/06 05:17:42;;;;;;;11.57;11.18;;;7.60;99.90;;;;;;5040843;28;20175;-80
2022/08/06 05:20:19;;;;;;;12.45;11.95;;;7.80;99.90;;;;;;5043815;28;20151;-79
2022/08/06 05:23:13;;;;;;;9.52;9.23;;;8.00;99.90;;;;;;5062359;28;20045;-79
2022/08/06 05:25:48;;;;;;;8.77;8.48;;;8.00;99.90;;;;;;5045761;28;20567;-80
2022/08/06 05:28:23;;;;;;;8.80;8.50;;;8.20;99.90;;;;;;5062043;28;20064;-79
2022/08/06 05:30:54;;;;;;;8.57;8.27;;;8.40;99.90;;;;;;5063642;28;20561;-78
2022/08/06 05:33:27;;;;;;;9.00;8.70;;;8.50;99.90;;;;;;5045509;28;20036;-80
2022/08/06 05:35:56;;;;;;;8.32;8.02;;;8.60;99.90;;;;;;5042749;28;20052;-80
2022/08/06 05:38:32;;;;;;;8.73;8.43;;;8.80;99.90;;;;;;5039369;28;20036;-80
2022/08/06 05:41:04;;;;;;;7.43;7.22;;;8.80;99.90;;;;;;5057571;28;20112;-80
2022/08/06 05:43:34;;;;;;;11.38;10.98;;;8.90;99.90;;;;;;5039979;28;20033;-79
2022/08/06 05:46:23;;;;;;;11.10;10.70;;;9.00;99.90;;;;;;5049219;28;20070;-78
2022/08/06 05:49:03;;;;;;;11.25;10.85;;;9.10;99.90;;;;;;5045027;28;20047;-79
2022/08/06 05:51:57;;;;;;;25.73;14.95;;;9.30;99.90;;;;;;5077571;28;20040;-78
2022/08/06 05:54:32;;;;;;;;;;;9.40;99.90;;;;;;5053279;28;20045;-78
2022/08/06 05:57:17;;;;;;;17.20;16.00;;;9.50;99.90;;;;;;5058394;28;20007;-79
2022/08/06 06:00:10;;;;;;;11.27;10.57;;;9.70;99.90;;;;;;5044816;28;20356;-79
2022/08/06 06:02:59;;;;;;;10.90;10.02;;;9.90;99.90;;;;;;5040344;28;20090;-77
2022/08/06 06:05:30;;;;;;;7.75;7.35;;;10.10;99.90;;;;;;5061772;28;20048;-80
2022/08/06 06:08:19;;;;;;;12.52;11.60;;;10.20;99.90;;;;;;5046686;28;20032;-80
2022/08/06 06:11:08;;;;;;;11.85;10.77;;;10.40;99.90;;;;;;5037092;28;20090;-77
2022/08/06 06:13:41;;;;;;;40.40;38.90;;;10.60;99.90;;;;;;5045414;28;20048;-79
2022/08/06 06:17:21;;;;;;;14.80;13.15;;;10.90;99.90;;;;;;5058852;28;20772;-79
2022/08/06 06:20:04;;;;;;;14.63;13.23;;;11.10;99.90;;;;;;4981487;28;20132;-78
2022/08/06 06:23:15;;;;;;;14.45;13.20;;;11.70;99.90;;;;;;5036241;28;20044;-78
2022/08/06 06:26:03;;;;;;;15.75;14.70;;;12.10;99.90;;;;;;5057450;28;21345;-77
2022/08/06 06:28:37;;;;;;;16.17;14.93;;;12.60;99.90;;;;;;5038719;28;20305;-81
2022/08/06 06:31:40;;;;;;;16.33;15.23;;;13.10;99.90;;;;;;5038953;28;20048;-78
2022/08/06 06:34:42;;;;;;;18.55;17.55;;;13.70;99.90;;;;;;5018272;28;20501;-78
2022/08/06 06:37:18;;;;;;;19.38;18.17;;;14.20;99.90;;;;;;5041797;28;20166;-78
2022/08/06 06:39:54;;;;;;;20.63;19.08;;;14.30;99.90;;;;;;5038176;28;20842;-77
2022/08/06 06:42:34;;;;;;;21.02;19.63;;;14.70;99.90;;;;;;5044937;28;20110;-77
2022/08/06 06:45:04;;;;;;;23.00;21.35;;;15.00;99.90;;;;;;5019634;28;20037;-78
2022/08/06 06:48:27;;;;;;;23.17;21.65;;;15.30;99.90;;;;;;5028493;28;20094;-78
2022/08/06 06:51:01;;;;;;;23.15;21.65;;;15.40;99.90;;;;;;5037736;28;20056;-79
2022/08/06 06:53:40;;;;;;;22.50;21.27;;;15.50;99.90;;;;;;5046276;28;20049;-77
2022/08/06 06:56:31;;;;;;;23.40;21.92;;;15.70;99.90;;;;;;5055178;28;20037;-77
2022/08/06 06:59:10;;;;;;;22.50;21.13;;;16.00;99.90;;;;;;5042177;28;20044;-78
2022/08/06 07:01:46;;;;;;;22.52;21.35;;;16.30;99.90;;;;;;5012973;28;20532;-78
2022/08/06 07:04:23;;;;;;;22.30;21.08;;;16.50;99.90;;;;;;5040364;28;20041;-77
2022/08/06 07:06:57;;;;;;;23.35;21.95;;;16.60;99.90;;;;;;5017957;28;20072;-77
2022/08/06 07:09:29;;;;;;;23.20;21.77;;;16.90;99.90;;;;;;5025328;28;20785;-78
2022/08/06 07:12:14;;;;;;;22.45;21.15;;;17.10;99.90;;;;;;5005449;28;20037;-79
2022/08/06 07:14:49;;;;;;;23.15;21.85;;;17.50;99.90;;;;;;5022858;28;20045;-79
2022/08/06 07:17:29;;;;;;;23.15;21.65;;;17.30;99.90;;;;;;5040534;28;20055;-78
2022/08/06 07:20:22;;;;;;;22.05;20.83;;;17.40;99.90;;;;;;5044930;28;20052;-79
2022/08/06 07:22:55;;;;;;;21.17;19.98;;;17.50;99.90;;;;;;5021359;28;20057;-80
2022/08/06 07:25:45;;;;;;;21.77;20.58;;;17.90;99.90;;;;;;5023463;28;20552;-79
2022/08/06 07:28:25;;;;;;;21.90;20.65;;;17.90;99.90;;;;;;5040186;28;20048;-79
2022/08/06 07:30:57;;;;;;;21.10;19.88;;;18.00;99.90;;;;;;5027032;28;20037;-78
2022/08/06 07:33:34;;;;;;;21.88;20.55;;;18.00;99.90;;;;;;5046013;28;20047;-78
2022/08/06 07:36:24;;;;;;;23.08;21.23;;;18.10;99.90;;;;;;5049221;28;20117;-78
2022/08/06 07:39:03;;;;;;;22.13;20.95;;;18.20;99.90;;;;;;5044128;28;20048;-78
2022/08/06 07:41:33;;;;;;;21.30;20.10;;;18.30;99.90;;;;;;5062768;28;20044;-79
2022/08/06 07:44:22;;;;;;;21.13;20.00;;;18.40;99.90;;;;;;5045277;28;20637;-77
2022/08/06 07:46:59;;;;;;;19.25;18.15;;;18.60;99.90;;;;;;5048843;28;20615;-77
2022/08/06 07:49:40;;;;;;;22.23;20.60;;;18.80;99.90;;;;;;5065801;28;20135;-77
2022/08/06 07:52:28;;;;;;;20.13;19.13;;;18.70;99.90;;;;;;5051719;28;20199;-76
2022/08/06 07:54:59;;;;;;;19.60;18.15;;;18.30;99.90;;;;;;5068887;28;20043;-78
2022/08/06 07:57:27;;;;;;;21.95;20.63;;;17.80;99.90;;;;;;5068969;28;20147;-79
2022/08/06 08:00:14;;;;;;;19.48;18.45;;;17.50;99.90;;;;;;5073308;28;20086;-76
2022/08/06 08:06:17;;;;;;;20.40;19.10;;;17.50;99.90;;;;;;5069055;28;20049;-77
2022/08/06 08:08:29;;;;;;;22.88;21.10;;;18.00;99.90;;;;;;5066052;28;20101;-77
2022/08/06 08:10:56;;;;;;;19.55;18.33;;;18.50;99.90;;;;;;5070146;28;20041;-78
2022/08/06 08:13:25;;;;;;;20.45;19.15;;;18.70;99.90;;;;;;5049526;28;20140;-77
2022/08/06 08:16:11;;;;;;;22.55;20.98;;;18.60;99.90;;;;;;5032365;28;20052;-77
2022/08/06 08:18:47;;;;;;;19.88;18.55;;;18.60;99.90;;;;;;5067015;28;20522;-78
2022/08/06 08:21:19;;;;;;;21.02;19.83;;;18.80;99.90;;;;;;5046046;28;20705;-76
2022/08/06 08:23:50;;;;;;;19.67;18.58;;;18.80;99.90;;;;;;5046482;28;20040;-78
2022/08/06 08:26:22;;;;;;;20.85;19.55;;;18.70;99.90;;;;;;5067975;28;20124;-78
2022/08/06 08:28:51;;;;;;;20.50;19.30;;;18.40;99.90;;;;;;5045254;28;20048;-77
2022/08/06 08:31:18;;;;;;;19.13;17.92;;;18.70;99.90;;;;;;5045520;28;20047;-79
2022/08/06 08:33:51;;;;;;;18.15;17.02;;;18.90;99.90;;;;;;5048489;28;20121;-78
2022/08/06 08:36:26;;;;;;;19.65;18.60;;;19.10;99.90;;;;;;5046127;28;20048;-77
2022/08/06 08:38:57;;;;;;;19.02;18.02;;;19.30;99.90;;;;;;5028220;28;20036;-76
2022/08/06 08:41:30;;;;;;;18.45;17.35;;;19.30;99.90;;;;;;5048067;28;20060;-77
2022/08/06 08:44:19;;;;;;;18.58;17.67;;;19.70;99.90;;;;;;5048908;28;20052;-77
2022/08/06 08:46:58;;;;;;;18.48;17.38;;;20.20;99.90;;;;;;5042709;28;20066;-75
2022/08/06 08:49:46;;;;;;;17.25;16.25;;;20.30;99.90;;;;;;5047549;28;20045;-77
2022/08/06 08:52:16;;;;;;;18.90;17.80;;;19.60;99.90;;;;;;5043570;28;20068;-77
2022/08/06 08:54:49;;;;;;;19.25;18.13;;;19.80;99.90;;;;;;5070348;28;20113;-77
2022/08/06 08:57:18;;;;;;;19.13;18.00;;;19.60;99.90;;;;;;5060392;28;20749;-77
2022/08/06 09:00:06;;;;;;;18.10;17.10;;;19.20;99.90;;;;;;5044783;28;20131;-77
2022/08/06 09:02:38;;;;;;;19.50;18.42;;;19.20;99.90;;;;;;5014104;28;20052;-77
2022/08/06 09:05:15;;;;;;;20.80;19.50;;;19.10;99.90;;;;;;5025692;28;20027;-75
2022/08/06 09:07:42;;;;;;;19.55;18.33;;;19.00;99.90;;;;;;5059930;28;20046;-76
2022/08/06 09:10:27;;;;;;;20.00;18.73;;;19.00;99.90;;;;;;5051057;28;20716;-77
2022/08/06 09:12:58;;;;;;;21.88;20.42;;;19.30;99.90;;;;;;5047271;28;20049;-77
2022/08/06 09:15:24;;;;;;;21.00;19.80;;;19.70;99.90;;;;;;5053012;28;20118;-76
2022/08/06 09:17:51;;;;;;;21.00;19.52;;;20.10;99.90;;;;;;5043561;28;20059;-77
2022/08/06 09:21:00;;;;;;;19.05;17.90;;;20.30;99.90;;;;;;5058151;28;20044;-77
2022/08/06 09:23:31;;;;;;;18.70;17.52;;;20.10;99.90;;;;;;5069904;28;20044;-76
2022/08/06 09:26:14;;;;;;;20.90;19.63;;;19.90;99.90;;;;;;5071900;28;20040;-76
2022/08/06 09:29:02;;;;;;;19.58;18.15;;;19.70;99.90;;;;;;5064933;28;20036;-76
2022/08/06 09:31:48;;;;;;;18.83;17.48;;;19.80;99.90;;;;;;5051203;28;20113;-75
2022/08/06 09:34:21;;;;;;;18.45;17.45;;;20.10;99.90;;;;;;5083781;28;20108;-77
2022/08/06 09:37:05;;;;;;;19.67;18.40;;;19.90;99.90;;;;;;5064138;28;20040;-75
2022/08/06 09:39:41;;;;;;;21.42;20.23;;;19.30;99.90;;;;;;5030708;28;20514;-76
2022/08/06 09:42:40;;;;;;;19.80;18.70;;;18.60;99.90;;;;;;5049172;28;20044;-76
2022/08/06 09:45:11;;;;;;;21.10;19.90;;;19.00;99.90;;;;;;5045778;28;20132;-76
2022/08/06 09:47:59;;;;;;;21.33;20.20;;;19.20;99.90;;;;;;5065751;28;20114;-77
2022/08/06 09:50:42;;;;;;;20.60;18.95;;;19.90;99.90;;;;;;5066664;28;20040;-76
2022/08/06 09:53:12;;;;;;;18.80;17.70;;;19.80;99.90;;;;;;5049020;28;20044;-76
2022/08/06 09:55:41;;;;;;;18.70;17.70;;;20.00;99.90;;;;;;5050293;28;20128;-76
2022/08/06 09:58:08;;;;;;;19.27;18.30;;;19.50;99.90;;;;;;5049317;28;20477;-76
2022/08/06 10:00:37;;;;;;;19.83;18.67;;;19.40;99.90;;;;;;5049171;28;20068;-76
2022/08/06 10:03:09;;;;;;;19.48;18.52;;;19.60;99.90;;;;;;5070883;28;20037;-76
2022/08/06 10:06:04;;;;;;;19.90;18.73;;;20.30;99.90;;;;;;5049323;28;20068;-77
2022/08/06 10:08:41;;;;;;;20.05;18.65;;;20.50;99.90;;;;;;5063485;28;20128;-77
2022/08/06 10:11:09;;;;;;;19.58;18.45;;;20.60;99.90;;;;;;5055382;28;20341;-77
2022/08/06 10:13:38;;;;;;;20.33;19.25;;;20.90;99.90;;;;;;5073576;28;20048;-77
2022/08/06 10:16:16;;;;;;;20.45;19.35;;;21.10;99.90;;;;;;5052349;28;20040;-77
2022/08/06 10:18:46;;;;;;;20.40;19.23;;;21.20;99.90;;;;;;5063388;28;20070;-76
2022/08/06 10:21:29;;;;;;;21.05;19.85;;;21.70;99.90;;;;;;5065484;28;20059;-76
2022/08/06 10:24:10;;;;;;;19.85;18.63;;;22.00;99.90;;;;;;5031113;28;20076;-78
2022/08/06 10:26:37;;;;;;;19.10;18.20;;;21.70;99.90;;;;;;5070096;28;20044;-76
2022/08/06 10:29:11;;;;;;;19.60;18.27;;;21.40;99.90;;;;;;5064792;28;20743;-76
2022/08/06 10:31:40;;;;;;;18.90;17.85;;;21.00;99.90;;;;;;5048227;28;20060;-76
2022/08/06 10:34:23;;;;;;;20.02;18.95;;;20.70;99.90;;;;;;5033803;28;20090;-77
2022/08/06 10:37:02;;;;;;;20.08;19.05;;;20.50;99.90;;;;;;5059047;28;20045;-77
2022/08/06 10:39:42;;;;;;;18.90;17.70;;;20.70;99.90;;;;;;5041181;28;20075;-76
2022/08/06 10:42:29;;;;;;;21.10;19.80;;;21.30;99.90;;;;;;5027586;28;20102;-78
2022/08/06 10:44:57;;;;;;;20.88;19.67;;;21.30;99.90;;;;;;5039962;28;20110;-78
2022/08/06 10:47:27;;;;;;;22.60;21.15;;;21.40;99.90;;;;;;5043523;28;20794;-78
2022/08/06 10:50:15;;;;;;;21.90;20.70;;;21.80;99.90;;;;;;5042449;28;20450;-77
2022/08/06 10:52:56;;;;;;;22.67;21.42;;;22.10;99.90;;;;;;5043629;28;20128;-77
2022/08/06 10:55:26;;;;;;;19.92;18.83;;;21.90;99.90;;;;;;5043234;28;20135;-77
2022/08/06 10:58:11;;;;;;;20.20;19.00;;;22.10;99.90;;;;;;5037087;28;20044;-76
2022/08/06 11:00:42;;;;;;;19.45;18.35;;;21.90;99.90;;;;;;5042814;28;20107;-76
2022/08/06 11:03:38;;;;;;;20.45;19.25;;;21.60;99.90;;;;;;5035927;28;20048;-78
2022/08/06 11:06:24;;;;;;;;;;;21.20;99.90;;;;;;5035155;28;20048;-78
2022/08/06 11:09:08;;;;;;;19.92;18.83;;;20.60;99.90;;;;;;5059133;28;19924;-75
2022/08/06 11:12:01;;;;;;;20.47;19.37;;;20.50;99.90;;;;;;5045563;28;20064;-75
2022/08/06 11:14:37;;;;;;;21.38;20.17;;;20.20;99.90;;;;;;5053418;28;20141;-75
2022/08/06 11:17:05;;;;;;;22.42;21.27;;;20.30;99.90;;;;;;5042062;28;20733;-78
2022/08/06 11:19:46;;;;;;;21.10;19.80;;;20.40;99.90;;;;;;5064838;28;20048;-76
2022/08/06 11:22:39;;;;;;;19.92;18.83;;;19.90;99.90;;;;;;5036572;28;20209;-76
2022/08/06 11:25:37;;;;;;;19.40;18.40;;;19.40;99.90;;;;;;5069087;28;20548;-76
2022/08/06 11:28:06;;;;;;;;;;;19.70;99.90;;;;;;5075805;28;20060;-76
2022/08/06 11:30:38;;;;;;;22.48;21.20;;;20.30;99.90;;;;;;5051015;28;20396;-76
2022/08/06 11:33:05;;;;;;;22.00;20.80;;;21.00;99.90;;;;;;5056896;28;20134;-76
2022/08/06 11:35:33;;;;;;;21.73;20.63;;;21.50;99.90;;;;;;5043238;28;20700;-77
2022/08/06 11:38:35;;;;;;;22.42;21.10;;;21.90;99.90;;;;;;5048999;28;20040;-76
2022/08/06 11:41:10;;;;;;;22.95;21.75;;;22.40;99.90;;;;;;5041695;28;20037;-76
2022/08/06 11:44:00;;;;;;;21.10;19.80;;;20.70;99.90;;;;;;5081571;28;20074;-77
2022/08/06 11:46:32;;;;;;;20.02;18.83;;;20.50;99.90;;;;;;5071201;28;20151;-76
2022/08/06 11:49:02;;;;;;;20.83;19.67;;;21.20;99.90;;;;;;5057611;28;20085;-76
2022/08/06 11:51:57;;;;;;;22.85;21.73;;;21.50;99.90;;;;;;5060503;28;20047;-76
2022/08/06 11:54:43;;;;;;;19.63;18.63;;;21.50;99.90;;;;;;5042169;23;20052;-76
2022/08/06 11:57:13;;;;;;;19.38;18.17;;;21.60;99.90;;;;;;5031367;28;20074;-76
2022/08/06 12:00:01;;;;;;;19.95;18.80;;;21.80;99.90;;;;;;5028979;28;20041;-75
2022/08/06 12:02:41;;;;;;;22.63;21.35;;;21.60;99.90;;;;;;5033561;28;20044;-76
2022/08/06 12:05:13;;;;;;;23.58;22.27;;;20.60;99.90;;;;;;5044212;28;20111;-75
2022/08/06 12:07:45;;;;;;;23.45;22.25;;;20.30;99.90;;;;;;5040948;28;20058;-77
2022/08/06 12:10:18;;;;;;;24.33;23.13;;;20.30;99.90;;;;;;5021389;28;20584;-77
2022/08/06 12:12:56;;;;;;;23.70;22.50;;;20.90;99.90;;;;;;5045011;28;20068;-77
2022/08/06 12:15:28;;;;;;;24.00;22.75;;;21.50;99.90;;;;;;5009305;28;20048;-77
2022/08/06 12:18:15;;;;;;;23.83;22.70;;;21.30;99.90;;;;;;5043302;28;20442;-77
2022/08/06 12:20:49;;;;;;;24.52;23.23;;;21.10;99.90;;;;;;5039366;28;20143;-77
2022/08/06 12:23:23;;;;;;;20.75;19.75;;;21.50;99.90;;;;;;5021444;28;20045;-78
2022/08/06 12:26:10;;;;;;;21.30;20.23;;;22.00;99.90;;;;;;5025853;28;20577;-75
2022/08/06 12:28:37;;;;;;;20.88;19.85;;;22.10;99.90;;;;;;5042567;28;20063;-77
2022/08/06 12:31:04;;;;;;;20.25;19.25;;;21.90;99.90;;;;;;5029828;28;20056;-76
2022/08/06 12:33:51;;;;;;;20.55;19.40;;;21.60;99.90;;;;;;5030906;28;20106;-75
2022/08/06 12:36:18;;;;;;;20.45;19.45;;;21.20;99.90;;;;;;5038406;28;20071;-76
2022/08/06 12:38:59;;;;;;;20.70;19.60;;;21.20;99.90;;;;;;5025631;28;20049;-76
2022/08/06 12:41:35;;;;;;;21.23;20.13;;;21.20;99.90;;;;;;5015489;28;20048;-76
2022/08/06 12:44:14;;;;;;;23.08;21.98;;;21.20;99.90;;;;;;5044386;28;20214;-77
2022/08/06 12:47:12;;;;;;;24.70;23.30;;;21.30;99.90;;;;;;5040434;28;20044;-77
2022/08/06 12:49:39;;;;;;;25.55;24.35;;;21.60;99.90;;;;;;5042122;28;20113;-76
2022/08/06 12:52:16;;;;;;;21.90;20.80;;;20.90;99.90;;;;;;5045823;28;20068;-77
2022/08/06 12:54:44;;;;;;;21.92;20.83;;;20.40;99.90;;;;;;5025870;28;20103;-77
2022/08/06 12:57:27;;;;;;;22.13;21.02;;;20.60;99.90;;;;;;5043142;28;20103;-77
2022/08/06 13:00:15;;;;;;;22.88;21.67;;;20.80;99.90;;;;;;5031288;28;20068;-76
2022/08/06 13:02:42;;;;;;;21.90;20.90;;;20.70;99.90;;;;;;5051078;28;20040;-77
2022/08/06 13:05:13;;;;;;;21.15;20.15;;;20.60;99.90;;;;;;5060492;28;21295;-77
2022/08/06 13:07:42;;;;;;;22.08;20.67;;;20.60;99.90;;;;;;5037294;28;20041;-77
2022/08/06 13:10:13;;;;;;;21.60;20.27;;;20.60;99.90;;;;;;5015321;28;20092;-75
2022/08/06 13:13:02;;;;;;;20.70;19.60;;;20.50;99.90;;;;;;5044490;28;20059;-77
2022/08/06 13:16:04;;;;;;;22.98;21.67;;;20.50;99.90;;;;;;5019111;28;20777;-75
2022/08/06 13:18:33;;;;;;;23.02;21.92;;;20.50;99.90;;;;;;5038568;28;20041;-77
2022/08/06 13:21:22;;;;;;;23.85;22.65;;;20.90;99.90;;;;;;5041012;28;20057;-75
2022/08/06 13:23:52;;;;;;;23.08;22.08;;;21.20;99.90;;;;;;5043121;28;20041;-79
2022/08/06 13:26:21;;;;;;;23.65;22.45;;;21.70;99.90;;;;;;5036417;28;20490;-77
2022/08/06 13:29:14;;;;;;;24.52;23.33;;;22.10;99.90;;;;;;5028229;28;20048;-78
2022/08/06 13:32:08;;;;;;;23.10;21.90;;;22.50;99.90;;;;;;5044769;28;20072;-77
2022/08/06 13:34:57;;;;;;;21.73;20.67;;;22.50;99.90;;;;;;5034995;28;20121;-76
2022/08/06 13:38:03;;;;;;;22.45;21.35;;;22.40;99.90;;;;;;5030364;28;20378;-76
2022/08/06 13:40:48;;;;;;;21.58;20.48;;;21.70;99.90;;;;;;4939825;28;20642;-77
2022/08/06 13:43:42;;;;;;;21.17;19.95;;;21.30;99.90;;;;;;4933939;28;20118;-77